sensor_id;sensor_type;location;lat;lon;timestamp;P1;durP1;ratioP1;P2;durP2;ratioP2
8260;SDS011;64115;50.170;8.242;2022-10-16T00:00:33;6.80;;;3.17;;
8260;SDS011;64115;50.170;8.242;2022-10-16T00:03:02;5.03;;;3.47;;
8260;SDS011;64115;50.170;8.242;2022-10-16T00:05:29;4.60;;;3.37;;
8260;SDS011;64115;50.170;8.242;2022-10-16T00:07:56;7.03;;;4.40;;
8260;SDS011;64115;50.170;8.242;2022-10-16T00:10:23;5.67;;;3.70;;
8260;SDS011;64115;50.170;8.242;2022-10-16T00:12:51;7.07;;;3.77;;
8260;SDS011;64115;50.170;8.242;2022-10-16T00:15:18;6.70;;;3.53;;
8260;SDS011;64115;50.170;8.242;2022-10-16T00:17:45;7.67;;;3.87;;
8260;SDS011;64115;50.170;8.242;2022-10-16T00:20:12;10.27;;;5.23;;
8260;SDS011;64115;50.170;8.242;2022-10-16T00:22:39;10.17;;;4.33;;
8260;SDS011;64115;50.170;8.242;2022-10-16T00:25:06;10.67;;;4.77;;
8260;SDS011;64115;50.170;8.242;2022-10-16T00:27:33;7.97;;;4.50;;
8260;SDS011;64115;50.170;8.242;2022-10-16T00:30:01;8.87;;;4.93;;
8260;SDS011;64115;50.170;8.242;2022-10-16T00:32:29;10.73;;;5.03;;
8260;SDS011;64115;50.170;8.242;2022-10-16T00:34:56;9.00;;;6.13;;
8260;SDS011;64115;50.170;8.242;2022-10-16T00:37:22;12.27;;;5.83;;
8260;SDS011;64115;50.170;8.242;2022-10-16T00:39:49;6.90;;;4.90;;
8260;SDS011;64115;50.170;8.242;2022-10-16T00:42:16;12.97;;;5.10;;
8260;SDS011;64115;50.170;8.242;2022-10-16T00:44:46;12.10;;;6.30;;
8260;SDS011;64115;50.170;8.242;2022-10-16T00:47:19;9.70;;;5.33;;
8260;SDS011;64115;50.170;8.242;2022-10-16T00:49:51;9.53;;;5.33;;
8260;SDS011;64115;50.170;8.242;2022-10-16T00:52:22;12.70;;;4.80;;
8260;SDS011;64115;50.170;8.242;2022-10-16T00:54:49;9.80;;;5.87;;
8260;SDS011;64115;50.170;8.242;2022-10-16T00:57:19;10.97;;;5.87;;
8260;SDS011;64115;50.170;8.242;2022-10-16T00:59:46;13.73;;;5.00;;
8260;SDS011;64115;50.170;8.242;2022-10-16T01:02:14;9.90;;;4.60;;
8260;SDS011;64115;50.170;8.242;2022-10-16T01:04:44;11.20;;;4.83;;
8260;SDS011;64115;50.170;8.242;2022-10-16T01:07:16;6.00;;;3.93;;
8260;SDS011;64115;50.170;8.242;2022-10-16T01:09:54;12.17;;;3.73;;
8260;SDS011;64115;50.170;8.242;2022-10-16T01:12:34;8.57;;;3.60;;
8260;SDS011;64115;50.170;8.242;2022-10-16T01:15:08;8.43;;;3.57;;
8260;SDS011;64115;50.170;8.242;2022-10-16T01:17:40;4.83;;;3.03;;
8260;SDS011;64115;50.170;8.242;2022-10-16T01:20:14;7.63;;;3.63;;
8260;SDS011;64115;50.170;8.242;2022-10-16T01:22:51;8.23;;;3.90;;
8260;SDS011;64115;50.170;8.242;2022-10-16T01:25:31;4.63;;;4.23;;
8260;SDS011;64115;50.170;8.242;2022-10-16T01:28:27;5.13;;;4.63;;
8260;SDS011;64115;50.170;8.242;2022-10-16T01:31:00;10.43;;;4.60;;
8260;SDS011;64115;50.170;8.242;2022-10-16T01:33:29;7.70;;;5.10;;
8260;SDS011;64115;50.170;8.242;2022-10-16T01:36:02;8.27;;;4.70;;
8260;SDS011;64115;50.170;8.242;2022-10-16T01:38:36;6.73;;;4.53;;
8260;SDS011;64115;50.170;8.242;2022-10-16T01:41:06;6.40;;;4.90;;
8260;SDS011;64115;50.170;8.242;2022-10-16T01:43:39;7.57;;;4.63;;
8260;SDS011;64115;50.170;8.242;2022-10-16T01:46:11;9.10;;;4.63;;
8260;SDS011;64115;50.170;8.242;2022-10-16T01:48:41;10.43;;;4.00;;
8260;SDS011;64115;50.170;8.242;2022-10-16T01:51:08;8.30;;;3.70;;
8260;SDS011;64115;50.170;8.242;2022-10-16T01:53:38;7.63;;;3.70;;
8260;SDS011;64115;50.170;8.242;2022-10-16T01:56:06;12.27;;;4.00;;
8260;SDS011;64115;50.170;8.242;2022-10-16T01:58:36;7.87;;;4.57;;
8260;SDS011;64115;50.170;8.242;2022-10-16T02:01:08;11.93;;;4.87;;
8260;SDS011;64115;50.170;8.242;2022-10-16T02:03:37;11.00;;;4.23;;
8260;SDS011;64115;50.170;8.242;2022-10-16T02:06:08;12.83;;;4.87;;
8260;SDS011;64115;50.170;8.242;2022-10-16T02:08:35;7.13;;;4.20;;
8260;SDS011;64115;50.170;8.242;2022-10-16T02:11:04;7.93;;;5.03;;
8260;SDS011;64115;50.170;8.242;2022-10-16T02:13:32;12.87;;;6.13;;
8260;SDS011;64115;50.170;8.242;2022-10-16T02:16:04;6.73;;;4.87;;
8260;SDS011;64115;50.170;8.242;2022-10-16T02:18:32;6.83;;;4.90;;
8260;SDS011;64115;50.170;8.242;2022-10-16T02:20:59;12.13;;;5.83;;
8260;SDS011;64115;50.170;8.242;2022-10-16T02:23:33;10.10;;;5.63;;
8260;SDS011;64115;50.170;8.242;2022-10-16T02:26:04;7.80;;;5.50;;
8260;SDS011;64115;50.170;8.242;2022-10-16T02:28:35;14.70;;;5.73;;
8260;SDS011;64115;50.170;8.242;2022-10-16T02:31:10;13.97;;;6.47;;
8260;SDS011;64115;50.170;8.242;2022-10-16T02:33:40;13.17;;;6.00;;
8260;SDS011;64115;50.170;8.242;2022-10-16T02:36:10;10.27;;;6.00;;
8260;SDS011;64115;50.170;8.242;2022-10-16T02:38:38;8.20;;;4.80;;
8260;SDS011;64115;50.170;8.242;2022-10-16T02:41:07;9.70;;;5.27;;
8260;SDS011;64115;50.170;8.242;2022-10-16T02:43:34;12.17;;;5.57;;
8260;SDS011;64115;50.170;8.242;2022-10-16T02:46:01;6.13;;;4.30;;
8260;SDS011;64115;50.170;8.242;2022-10-16T02:48:29;10.67;;;4.67;;
8260;SDS011;64115;50.170;8.242;2022-10-16T02:50:56;10.27;;;4.60;;
8260;SDS011;64115;50.170;8.242;2022-10-16T02:53:23;9.93;;;4.50;;
8260;SDS011;64115;50.170;8.242;2022-10-16T02:55:50;7.03;;;3.87;;
8260;SDS011;64115;50.170;8.242;2022-10-16T02:58:16;8.90;;;4.00;;
8260;SDS011;64115;50.170;8.242;2022-10-16T03:00:43;5.73;;;3.80;;
8260;SDS011;64115;50.170;8.242;2022-10-16T03:03:11;4.97;;;3.50;;
8260;SDS011;64115;50.170;8.242;2022-10-16T03:05:39;8.93;;;2.60;;
8260;SDS011;64115;50.170;8.242;2022-10-16T03:08:06;7.53;;;2.57;;
8260;SDS011;64115;50.170;8.242;2022-10-16T03:10:32;8.93;;;2.20;;
8260;SDS011;64115;50.170;8.242;2022-10-16T03:12:59;5.53;;;1.80;;
8260;SDS011;64115;50.170;8.242;2022-10-16T03:15:26;3.13;;;1.63;;
8260;SDS011;64115;50.170;8.242;2022-10-16T03:17:53;8.17;;;1.80;;
8260;SDS011;64115;50.170;8.242;2022-10-16T03:20:20;8.87;;;1.73;;
8260;SDS011;64115;50.170;8.242;2022-10-16T03:22:48;9.30;;;1.90;;
8260;SDS011;64115;50.170;8.242;2022-10-16T03:25:15;3.53;;;1.90;;
8260;SDS011;64115;50.170;8.242;2022-10-16T03:27:41;6.97;;;2.33;;
8260;SDS011;64115;50.170;8.242;2022-10-16T03:30:09;9.20;;;2.53;;
8260;SDS011;64115;50.170;8.242;2022-10-16T03:32:36;5.53;;;2.40;;
8260;SDS011;64115;50.170;8.242;2022-10-16T03:35:03;7.87;;;2.77;;
8260;SDS011;64115;50.170;8.242;2022-10-16T03:37:30;8.33;;;2.93;;
8260;SDS011;64115;50.170;8.242;2022-10-16T03:39:58;7.87;;;2.83;;
8260;SDS011;64115;50.170;8.242;2022-10-16T03:42:25;7.77;;;2.27;;
8260;SDS011;64115;50.170;8.242;2022-10-16T03:44:54;7.07;;;2.83;;
8260;SDS011;64115;50.170;8.242;2022-10-16T03:47:21;6.77;;;3.60;;
8260;SDS011;64115;50.170;8.242;2022-10-16T03:49:48;5.70;;;3.37;;
8260;SDS011;64115;50.170;8.242;2022-10-16T03:52:15;8.17;;;3.60;;
8260;SDS011;64115;50.170;8.242;2022-10-16T03:54:42;5.73;;;3.60;;
8260;SDS011;64115;50.170;8.242;2022-10-16T03:57:10;6.30;;;3.53;;
8260;SDS011;64115;50.170;8.242;2022-10-16T03:59:37;4.47;;;3.17;;
8260;SDS011;64115;50.170;8.242;2022-10-16T04:02:04;5.63;;;3.50;;
8260;SDS011;64115;50.170;8.242;2022-10-16T04:04:30;3.30;;;3.10;;
8260;SDS011;64115;50.170;8.242;2022-10-16T04:06:57;7.27;;;3.50;;
8260;SDS011;64115;50.170;8.242;2022-10-16T04:09:24;4.20;;;3.47;;
8260;SDS011;64115;50.170;8.242;2022-10-16T04:11:51;15.93;;;3.73;;
8260;SDS011;64115;50.170;8.242;2022-10-16T04:14:19;3.90;;;3.47;;
8260;SDS011;64115;50.170;8.242;2022-10-16T04:16:46;11.70;;;3.50;;
8260;SDS011;64115;50.170;8.242;2022-10-16T04:19:12;3.83;;;3.33;;
8260;SDS011;64115;50.170;8.242;2022-10-16T04:21:39;6.60;;;3.63;;
8260;SDS011;64115;50.170;8.242;2022-10-16T04:24:06;7.27;;;3.40;;
8260;SDS011;64115;50.170;8.242;2022-10-16T04:26:33;8.80;;;3.50;;
8260;SDS011;64115;50.170;8.242;2022-10-16T04:28:59;4.67;;;3.27;;
8260;SDS011;64115;50.170;8.242;2022-10-16T04:31:28;7.07;;;3.70;;
8260;SDS011;64115;50.170;8.242;2022-10-16T04:33:55;5.80;;;3.53;;
8260;SDS011;64115;50.170;8.242;2022-10-16T04:36:21;4.60;;;3.97;;
8260;SDS011;64115;50.170;8.242;2022-10-16T04:38:48;9.70;;;4.23;;
8260;SDS011;64115;50.170;8.242;2022-10-16T04:41:15;8.43;;;4.03;;
8260;SDS011;64115;50.170;8.242;2022-10-16T04:43:42;5.43;;;3.90;;
8260;SDS011;64115;50.170;8.242;2022-10-16T04:46:09;7.30;;;3.90;;
8260;SDS011;64115;50.170;8.242;2022-10-16T04:48:37;5.97;;;3.90;;
8260;SDS011;64115;50.170;8.242;2022-10-16T04:51:04;8.60;;;4.23;;
8260;SDS011;64115;50.170;8.242;2022-10-16T04:53:31;5.43;;;4.47;;
8260;SDS011;64115;50.170;8.242;2022-10-16T04:55:58;4.20;;;3.90;;
8260;SDS011;64115;50.170;8.242;2022-10-16T04:58:25;5.57;;;3.70;;
8260;SDS011;64115;50.170;8.242;2022-10-16T05:00:51;8.63;;;3.60;;
8260;SDS011;64115;50.170;8.242;2022-10-16T05:03:18;6.67;;;3.47;;
8260;SDS011;64115;50.170;8.242;2022-10-16T05:05:47;6.03;;;3.77;;
8260;SDS011;64115;50.170;8.242;2022-10-16T05:08:14;6.20;;;3.50;;
8260;SDS011;64115;50.170;8.242;2022-10-16T05:10:41;6.73;;;3.83;;
8260;SDS011;64115;50.170;8.242;2022-10-16T05:13:09;8.83;;;3.83;;
8260;SDS011;64115;50.170;8.242;2022-10-16T05:15:36;11.53;;;4.20;;
8260;SDS011;64115;50.170;8.242;2022-10-16T05:18:03;7.63;;;4.50;;
8260;SDS011;64115;50.170;8.242;2022-10-16T05:20:29;12.47;;;4.83;;
8260;SDS011;64115;50.170;8.242;2022-10-16T05:22:58;9.80;;;4.70;;
8260;SDS011;64115;50.170;8.242;2022-10-16T05:25:24;6.90;;;4.80;;
8260;SDS011;64115;50.170;8.242;2022-10-16T05:27:51;8.13;;;4.57;;
8260;SDS011;64115;50.170;8.242;2022-10-16T05:30:18;11.50;;;4.60;;
8260;SDS011;64115;50.170;8.242;2022-10-16T05:32:48;12.57;;;4.37;;
8260;SDS011;64115;50.170;8.242;2022-10-16T05:35:15;8.53;;;4.70;;
8260;SDS011;64115;50.170;8.242;2022-10-16T05:37:43;8.13;;;4.90;;
8260;SDS011;64115;50.170;8.242;2022-10-16T05:40:12;7.63;;;4.83;;
8260;SDS011;64115;50.170;8.242;2022-10-16T05:42:40;7.90;;;5.13;;
8260;SDS011;64115;50.170;8.242;2022-10-16T05:45:08;7.90;;;5.43;;
8260;SDS011;64115;50.170;8.242;2022-10-16T05:47:36;5.57;;;5.07;;
8260;SDS011;64115;50.170;8.242;2022-10-16T05:50:03;14.40;;;5.80;;
8260;SDS011;64115;50.170;8.242;2022-10-16T05:52:31;7.97;;;5.50;;
8260;SDS011;64115;50.170;8.242;2022-10-16T05:54:57;11.37;;;5.50;;
8260;SDS011;64115;50.170;8.242;2022-10-16T05:57:25;9.20;;;5.83;;
8260;SDS011;64115;50.170;8.242;2022-10-16T05:59:52;12.57;;;6.20;;
8260;SDS011;64115;50.170;8.242;2022-10-16T06:02:19;9.30;;;6.20;;
8260;SDS011;64115;50.170;8.242;2022-10-16T06:04:46;9.20;;;5.97;;
8260;SDS011;64115;50.170;8.242;2022-10-16T06:07:13;12.57;;;6.27;;
8260;SDS011;64115;50.170;8.242;2022-10-16T06:09:39;7.70;;;6.23;;
8260;SDS011;64115;50.170;8.242;2022-10-16T06:12:06;8.97;;;6.00;;
8260;SDS011;64115;50.170;8.242;2022-10-16T06:14:35;7.57;;;6.83;;
8260;SDS011;64115;50.170;8.242;2022-10-16T06:17:01;9.03;;;7.40;;
8260;SDS011;64115;50.170;8.242;2022-10-16T06:19:28;8.73;;;6.47;;
8260;SDS011;64115;50.170;8.242;2022-10-16T06:21:56;10.50;;;6.57;;
8260;SDS011;64115;50.170;8.242;2022-10-16T06:24:23;10.70;;;6.93;;
8260;SDS011;64115;50.170;8.242;2022-10-16T06:26:50;9.47;;;6.97;;
8260;SDS011;64115;50.170;8.242;2022-10-16T06:29:17;9.57;;;7.50;;
8260;SDS011;64115;50.170;8.242;2022-10-16T06:31:45;11.37;;;7.27;;
8260;SDS011;64115;50.170;8.242;2022-10-16T06:34:12;11.80;;;6.70;;
8260;SDS011;64115;50.170;8.242;2022-10-16T06:36:39;8.10;;;6.47;;
8260;SDS011;64115;50.170;8.242;2022-10-16T06:39:06;9.83;;;6.70;;
8260;SDS011;64115;50.170;8.242;2022-10-16T06:41:33;7.27;;;6.50;;
8260;SDS011;64115;50.170;8.242;2022-10-16T06:44:00;10.03;;;6.30;;
8260;SDS011;64115;50.170;8.242;2022-10-16T06:46:27;13.20;;;6.80;;
8260;SDS011;64115;50.170;8.242;2022-10-16T06:48:55;8.10;;;6.83;;
8260;SDS011;64115;50.170;8.242;2022-10-16T06:51:22;8.27;;;5.93;;
8260;SDS011;64115;50.170;8.242;2022-10-16T06:53:50;10.97;;;7.10;;
8260;SDS011;64115;50.170;8.242;2022-10-16T06:56:19;10.47;;;6.50;;
8260;SDS011;64115;50.170;8.242;2022-10-16T06:58:47;13.23;;;6.70;;
8260;SDS011;64115;50.170;8.242;2022-10-16T07:01:16;10.17;;;7.27;;
8260;SDS011;64115;50.170;8.242;2022-10-16T07:03:44;10.80;;;7.30;;
8260;SDS011;64115;50.170;8.242;2022-10-16T07:06:14;10.70;;;7.73;;
8260;SDS011;64115;50.170;8.242;2022-10-16T07:08:44;9.97;;;7.17;;
8260;SDS011;64115;50.170;8.242;2022-10-16T07:11:13;10.17;;;6.97;;
8260;SDS011;64115;50.170;8.242;2022-10-16T07:13:41;8.57;;;7.27;;
8260;SDS011;64115;50.170;8.242;2022-10-16T07:16:10;11.57;;;7.00;;
8260;SDS011;64115;50.170;8.242;2022-10-16T07:18:37;12.97;;;6.30;;
8260;SDS011;64115;50.170;8.242;2022-10-16T07:21:05;7.93;;;6.00;;
8260;SDS011;64115;50.170;8.242;2022-10-16T07:23:34;11.50;;;6.90;;
8260;SDS011;64115;50.170;8.242;2022-10-16T07:26:02;12.13;;;6.70;;
8260;SDS011;64115;50.170;8.242;2022-10-16T07:28:29;10.50;;;7.17;;
8260;SDS011;64115;50.170;8.242;2022-10-16T07:30:59;13.43;;;7.00;;
8260;SDS011;64115;50.170;8.242;2022-10-16T07:33:27;12.13;;;7.50;;
8260;SDS011;64115;50.170;8.242;2022-10-16T07:35:54;8.03;;;7.27;;
8260;SDS011;64115;50.170;8.242;2022-10-16T07:38:21;14.30;;;7.50;;
8260;SDS011;64115;50.170;8.242;2022-10-16T07:40:55;11.33;;;7.53;;
8260;SDS011;64115;50.170;8.242;2022-10-16T07:43:22;9.17;;;7.30;;
8260;SDS011;64115;50.170;8.242;2022-10-16T07:45:50;13.07;;;8.10;;
8260;SDS011;64115;50.170;8.242;2022-10-16T07:48:17;9.27;;;7.27;;
8260;SDS011;64115;50.170;8.242;2022-10-16T07:50:44;8.20;;;6.90;;
8260;SDS011;64115;50.170;8.242;2022-10-16T07:53:11;8.27;;;6.50;;
8260;SDS011;64115;50.170;8.242;2022-10-16T07:55:38;7.97;;;7.10;;
8260;SDS011;64115;50.170;8.242;2022-10-16T07:58:06;8.53;;;7.10;;
8260;SDS011;64115;50.170;8.242;2022-10-16T08:00:35;8.37;;;6.93;;
8260;SDS011;64115;50.170;8.242;2022-10-16T08:03:03;13.27;;;7.30;;
8260;SDS011;64115;50.170;8.242;2022-10-16T08:05:30;13.33;;;6.97;;
8260;SDS011;64115;50.170;8.242;2022-10-16T08:07:59;8.77;;;6.43;;
8260;SDS011;64115;50.170;8.242;2022-10-16T08:10:26;9.63;;;6.47;;
8260;SDS011;64115;50.170;8.242;2022-10-16T08:12:54;8.60;;;6.33;;
8260;SDS011;64115;50.170;8.242;2022-10-16T08:15:22;9.07;;;6.40;;
8260;SDS011;64115;50.170;8.242;2022-10-16T08:17:56;8.27;;;5.80;;
8260;SDS011;64115;50.170;8.242;2022-10-16T08:20:24;6.53;;;5.57;;
8260;SDS011;64115;50.170;8.242;2022-10-16T08:22:51;8.60;;;5.50;;
8260;SDS011;64115;50.170;8.242;2022-10-16T08:25:19;8.37;;;5.33;;
8260;SDS011;64115;50.170;8.242;2022-10-16T08:27:46;6.77;;;5.00;;
8260;SDS011;64115;50.170;8.242;2022-10-16T08:30:13;6.77;;;5.93;;
8260;SDS011;64115;50.170;8.242;2022-10-16T08:32:42;6.10;;;4.83;;
8260;SDS011;64115;50.170;8.242;2022-10-16T08:35:09;10.73;;;5.10;;
8260;SDS011;64115;50.170;8.242;2022-10-16T08:37:36;12.27;;;5.33;;
8260;SDS011;64115;50.170;8.242;2022-10-16T08:40:05;7.03;;;5.30;;
8260;SDS011;64115;50.170;8.242;2022-10-16T08:42:37;6.53;;;5.53;;
8260;SDS011;64115;50.170;8.242;2022-10-16T08:48:08;9.27;;;5.43;;
8260;SDS011;64115;50.170;8.242;2022-10-16T08:50:42;6.57;;;5.50;;
8260;SDS011;64115;50.170;8.242;2022-10-16T08:53:10;5.70;;;5.10;;
8260;SDS011;64115;50.170;8.242;2022-10-16T08:55:45;7.33;;;5.30;;
8260;SDS011;64115;50.170;8.242;2022-10-16T08:58:16;9.00;;;5.37;;
8260;SDS011;64115;50.170;8.242;2022-10-16T09:00:46;6.43;;;5.47;;
8260;SDS011;64115;50.170;8.242;2022-10-16T09:03:21;6.97;;;4.93;;
8260;SDS011;64115;50.170;8.242;2022-10-16T09:06:02;12.07;;;5.33;;
8260;SDS011;64115;50.170;8.242;2022-10-16T09:08:53;5.67;;;5.17;;
8260;SDS011;64115;50.170;8.242;2022-10-16T09:11:34;6.37;;;4.97;;
8260;SDS011;64115;50.170;8.242;2022-10-16T09:14:17;6.37;;;5.00;;
8260;SDS011;64115;50.170;8.242;2022-10-16T09:17:03;11.13;;;4.83;;
8260;SDS011;64115;50.170;8.242;2022-10-16T09:19:39;6.10;;;4.70;;
8260;SDS011;64115;50.170;8.242;2022-10-16T09:22:12;8.33;;;4.90;;
8260;SDS011;64115;50.170;8.242;2022-10-16T09:24:42;6.87;;;4.70;;
8260;SDS011;64115;50.170;8.242;2022-10-16T09:27:09;5.30;;;4.00;;
8260;SDS011;64115;50.170;8.242;2022-10-16T09:29:37;6.13;;;3.87;;
8260;SDS011;64115;50.170;8.242;2022-10-16T09:32:09;6.67;;;3.80;;
8260;SDS011;64115;50.170;8.242;2022-10-16T09:34:41;4.33;;;3.43;;
8260;SDS011;64115;50.170;8.242;2022-10-16T09:37:12;5.43;;;3.70;;
8260;SDS011;64115;50.170;8.242;2022-10-16T09:39:46;4.47;;;2.73;;
8260;SDS011;64115;50.170;8.242;2022-10-16T09:42:16;3.63;;;2.97;;
8260;SDS011;64115;50.170;8.242;2022-10-16T09:44:47;4.83;;;2.90;;
8260;SDS011;64115;50.170;8.242;2022-10-16T09:47:16;5.73;;;2.67;;
8260;SDS011;64115;50.170;8.242;2022-10-16T09:49:54;2.77;;;2.37;;
8260;SDS011;64115;50.170;8.242;2022-10-16T09:52:23;5.47;;;2.30;;
8260;SDS011;64115;50.170;8.242;2022-10-16T09:54:52;3.17;;;2.10;;
8260;SDS011;64115;50.170;8.242;2022-10-16T09:57:20;6.67;;;2.20;;
8260;SDS011;64115;50.170;8.242;2022-10-16T09:59:48;7.87;;;2.30;;
8260;SDS011;64115;50.170;8.242;2022-10-16T10:02:16;3.60;;;2.10;;
8260;SDS011;64115;50.170;8.242;2022-10-16T10:04:48;3.17;;;1.90;;
8260;SDS011;64115;50.170;8.242;2022-10-16T10:07:23;4.47;;;2.37;;
8260;SDS011;64115;50.170;8.242;2022-10-16T10:09:53;5.73;;;2.17;;
8260;SDS011;64115;50.170;8.242;2022-10-16T10:12:23;13.27;;;2.40;;
8260;SDS011;64115;50.170;8.242;2022-10-16T10:14:52;2.53;;;2.33;;
8260;SDS011;64115;50.170;8.242;2022-10-16T10:17:21;2.67;;;2.23;;
8260;SDS011;64115;50.170;8.242;2022-10-16T10:19:50;3.43;;;2.20;;
8260;SDS011;64115;50.170;8.242;2022-10-16T10:22:27;5.90;;;2.43;;
8260;SDS011;64115;50.170;8.242;2022-10-16T10:25:00;3.20;;;2.60;;
8260;SDS011;64115;50.170;8.242;2022-10-16T10:27:43;3.00;;;2.20;;
8260;SDS011;64115;50.170;8.242;2022-10-16T10:30:32;4.63;;;2.40;;
8260;SDS011;64115;50.170;8.242;2022-10-16T10:33:12;2.40;;;2.20;;
8260;SDS011;64115;50.170;8.242;2022-10-16T11:09:51;6.10;;;1.77;;
8260;SDS011;64115;50.170;8.242;2022-10-16T11:12:22;6.00;;;1.80;;
8260;SDS011;64115;50.170;8.242;2022-10-16T11:14:54;5.53;;;1.73;;
8260;SDS011;64115;50.170;8.242;2022-10-16T11:17:25;1.83;;;1.73;;
8260;SDS011;64115;50.170;8.242;2022-10-16T11:19:56;5.73;;;1.67;;
8260;SDS011;64115;50.170;8.242;2022-10-16T11:22:29;1.80;;;1.53;;
8260;SDS011;64115;50.170;8.242;2022-10-16T11:25:02;2.50;;;1.43;;
8260;SDS011;64115;50.170;8.242;2022-10-16T11:27:39;6.23;;;1.50;;
8260;SDS011;64115;50.170;8.242;2022-10-16T11:30:13;4.10;;;1.57;;
8260;SDS011;64115;50.170;8.242;2022-10-16T11:32:45;4.00;;;1.50;;
8260;SDS011;64115;50.170;8.242;2022-10-16T11:35:21;4.50;;;1.97;;
8260;SDS011;64115;50.170;8.242;2022-10-16T11:37:51;2.33;;;1.50;;
8260;SDS011;64115;50.170;8.242;2022-10-16T11:40:23;2.40;;;1.43;;
8260;SDS011;64115;50.170;8.242;2022-10-16T11:42:59;3.80;;;1.63;;
8260;SDS011;64115;50.170;8.242;2022-10-16T11:45:33;3.53;;;2.30;;
8260;SDS011;64115;50.170;8.242;2022-10-16T11:48:07;5.83;;;2.00;;
8260;SDS011;64115;50.170;8.242;2022-10-16T11:50:45;4.30;;;3.30;;
8260;SDS011;64115;50.170;8.242;2022-10-16T11:53:20;5.27;;;3.60;;
8260;SDS011;64115;50.170;8.242;2022-10-16T11:55:55;4.00;;;3.50;;
8260;SDS011;64115;50.170;8.242;2022-10-16T11:58:23;5.73;;;3.80;;
8260;SDS011;64115;50.170;8.242;2022-10-16T12:00:55;7.07;;;3.30;;
8260;SDS011;64115;50.170;8.242;2022-10-16T12:03:27;3.50;;;3.20;;
8260;SDS011;64115;50.170;8.242;2022-10-16T12:06:02;5.20;;;3.57;;
8260;SDS011;64115;50.170;8.242;2022-10-16T12:08:39;3.30;;;3.00;;
8260;SDS011;64115;50.170;8.242;2022-10-16T12:11:22;3.50;;;3.30;;
8260;SDS011;64115;50.170;8.242;2022-10-16T12:14:03;3.30;;;3.10;;
8260;SDS011;64115;50.170;8.242;2022-10-16T12:16:33;2.93;;;2.83;;
8260;SDS011;64115;50.170;8.242;2022-10-16T12:19:09;2.70;;;2.60;;
8260;SDS011;64115;50.170;8.242;2022-10-16T12:21:38;3.67;;;2.47;;
8260;SDS011;64115;50.170;8.242;2022-10-16T12:24:06;3.57;;;2.57;;
8260;SDS011;64115;50.170;8.242;2022-10-16T12:26:47;2.37;;;2.20;;
8260;SDS011;64115;50.170;8.242;2022-10-16T12:29:21;4.93;;;2.30;;
8260;SDS011;64115;50.170;8.242;2022-10-16T12:31:54;3.93;;;2.30;;
8260;SDS011;64115;50.170;8.242;2022-10-16T12:34:22;2.40;;;2.30;;
8260;SDS011;64115;50.170;8.242;2022-10-16T12:36:53;3.70;;;2.70;;
8260;SDS011;64115;50.170;8.242;2022-10-16T12:39:22;3.03;;;2.37;;
8260;SDS011;64115;50.170;8.242;2022-10-16T12:42:01;2.70;;;2.00;;
8260;SDS011;64115;50.170;8.242;2022-10-16T12:44:32;2.20;;;2.10;;
8260;SDS011;64115;50.170;8.242;2022-10-16T12:47:00;3.87;;;2.60;;
8260;SDS011;64115;50.170;8.242;2022-10-16T12:49:32;3.17;;;2.27;;
8260;SDS011;64115;50.170;8.242;2022-10-16T12:52:03;2.20;;;2.10;;
8260;SDS011;64115;50.170;8.242;2022-10-16T12:54:30;2.10;;;2.00;;
8260;SDS011;64115;50.170;8.242;2022-10-16T12:57:09;2.00;;;1.90;;
8260;SDS011;64115;50.170;8.242;2022-10-16T12:59:53;3.20;;;1.97;;
8260;SDS011;64115;50.170;8.242;2022-10-16T13:02:35;4.13;;;2.30;;
8260;SDS011;64115;50.170;8.242;2022-10-16T13:05:20;2.10;;;1.97;;
8260;SDS011;64115;50.170;8.242;2022-10-16T13:08:03;2.20;;;2.10;;
8260;SDS011;64115;50.170;8.242;2022-10-16T13:10:40;1.80;;;1.70;;
8260;SDS011;64115;50.170;8.242;2022-10-16T13:16:27;1.90;;;1.80;;
8260;SDS011;64115;50.170;8.242;2022-10-16T13:19:03;1.70;;;1.70;;
8260;SDS011;64115;50.170;8.242;2022-10-16T13:21:39;2.77;;;2.20;;
8260;SDS011;64115;50.170;8.242;2022-10-16T13:24:15;1.93;;;1.80;;
8260;SDS011;64115;50.170;8.242;2022-10-16T13:26:53;2.10;;;1.83;;
8260;SDS011;64115;50.170;8.242;2022-10-16T13:29:30;4.80;;;2.00;;
8260;SDS011;64115;50.170;8.242;2022-10-16T13:31:59;2.70;;;2.20;;
8260;SDS011;64115;50.170;8.242;2022-10-16T13:34:27;2.37;;;2.17;;
8260;SDS011;64115;50.170;8.242;2022-10-16T13:36:55;3.97;;;2.00;;
8260;SDS011;64115;50.170;8.242;2022-10-16T13:39:23;2.13;;;1.90;;
8260;SDS011;64115;50.170;8.242;2022-10-16T13:42:03;1.90;;;1.80;;
8260;SDS011;64115;50.170;8.242;2022-10-16T13:44:36;1.60;;;1.60;;
8260;SDS011;64115;50.170;8.242;2022-10-16T13:47:10;3.50;;;1.40;;
8260;SDS011;64115;50.170;8.242;2022-10-16T13:49:42;1.83;;;1.47;;
8260;SDS011;64115;50.170;8.242;2022-10-16T13:52:15;1.87;;;1.73;;
8260;SDS011;64115;50.170;8.242;2022-10-16T13:54:44;1.80;;;1.70;;
8260;SDS011;64115;50.170;8.242;2022-10-16T13:57:12;2.10;;;1.90;;
8260;SDS011;64115;50.170;8.242;2022-10-16T13:59:41;1.80;;;1.63;;
8260;SDS011;64115;50.170;8.242;2022-10-16T14:02:19;1.77;;;1.67;;
8260;SDS011;64115;50.170;8.242;2022-10-16T14:04:48;2.00;;;1.50;;
8260;SDS011;64115;50.170;8.242;2022-10-16T14:07:17;1.63;;;1.53;;
8260;SDS011;64115;50.170;8.242;2022-10-16T14:09:49;2.63;;;1.50;;
8260;SDS011;64115;50.170;8.242;2022-10-16T14:12:17;2.17;;;1.67;;
8260;SDS011;64115;50.170;8.242;2022-10-16T14:14:46;1.63;;;1.53;;
8260;SDS011;64115;50.170;8.242;2022-10-16T14:17:15;1.73;;;1.40;;
8260;SDS011;64115;50.170;8.242;2022-10-16T14:19:45;1.30;;;1.30;;
8260;SDS011;64115;50.170;8.242;2022-10-16T14:22:26;2.50;;;1.40;;
8260;SDS011;64115;50.170;8.242;2022-10-16T14:24:56;2.00;;;1.77;;
8260;SDS011;64115;50.170;8.242;2022-10-16T14:27:24;1.90;;;1.80;;
8260;SDS011;64115;50.170;8.242;2022-10-16T14:30:08;2.00;;;1.80;;
8260;SDS011;64115;50.170;8.242;2022-10-16T14:32:52;2.27;;;2.00;;
8260;SDS011;64115;50.170;8.242;2022-10-16T14:35:24;2.30;;;2.10;;
8260;SDS011;64115;50.170;8.242;2022-10-16T14:37:54;2.27;;;2.00;;
8260;SDS011;64115;50.170;8.242;2022-10-16T14:40:23;2.30;;;2.10;;
8260;SDS011;64115;50.170;8.242;2022-10-16T14:42:51;2.40;;;2.20;;
8260;SDS011;64115;50.170;8.242;2022-10-16T14:45:21;2.23;;;2.13;;
8260;SDS011;64115;50.170;8.242;2022-10-16T14:47:50;2.80;;;2.60;;
8260;SDS011;64115;50.170;8.242;2022-10-16T14:50:19;2.50;;;2.30;;
8260;SDS011;64115;50.170;8.242;2022-10-16T14:52:47;3.73;;;2.70;;
8260;SDS011;64115;50.170;8.242;2022-10-16T14:55:14;2.33;;;2.07;;
8260;SDS011;64115;50.170;8.242;2022-10-16T14:57:40;2.73;;;2.57;;
8260;SDS011;64115;50.170;8.242;2022-10-16T15:00:13;3.67;;;2.60;;
8260;SDS011;64115;50.170;8.242;2022-10-16T15:02:44;3.13;;;2.77;;
8260;SDS011;64115;50.170;8.242;2022-10-16T15:05:13;3.57;;;3.00;;
8260;SDS011;64115;50.170;8.242;2022-10-16T15:07:42;3.60;;;3.23;;
8260;SDS011;64115;50.170;8.242;2022-10-16T15:10:09;3.00;;;2.80;;
8260;SDS011;64115;50.170;8.242;2022-10-16T15:12:36;3.60;;;3.40;;
8260;SDS011;64115;50.170;8.242;2022-10-16T15:15:11;4.07;;;3.20;;
8260;SDS011;64115;50.170;8.242;2022-10-16T15:17:50;3.53;;;3.23;;
8260;SDS011;64115;50.170;8.242;2022-10-16T15:20:20;3.33;;;3.13;;
8260;SDS011;64115;50.170;8.242;2022-10-16T15:22:47;3.90;;;3.60;;
8260;SDS011;64115;50.170;8.242;2022-10-16T15:25:17;3.73;;;3.53;;
8260;SDS011;64115;50.170;8.242;2022-10-16T15:27:55;4.10;;;3.37;;
8260;SDS011;64115;50.170;8.242;2022-10-16T15:30:22;3.87;;;3.57;;
8260;SDS011;64115;50.170;8.242;2022-10-16T15:32:50;5.07;;;3.70;;
8260;SDS011;64115;50.170;8.242;2022-10-16T15:35:17;5.33;;;3.77;;
8260;SDS011;64115;50.170;8.242;2022-10-16T15:37:45;4.07;;;3.87;;
8260;SDS011;64115;50.170;8.242;2022-10-16T15:40:13;4.00;;;3.70;;
8260;SDS011;64115;50.170;8.242;2022-10-16T15:42:40;4.37;;;4.03;;
8260;SDS011;64115;50.170;8.242;2022-10-16T15:45:08;3.83;;;3.53;;
8260;SDS011;64115;50.170;8.242;2022-10-16T15:47:35;4.20;;;3.90;;
8260;SDS011;64115;50.170;8.242;2022-10-16T15:50:03;4.63;;;4.23;;
8260;SDS011;64115;50.170;8.242;2022-10-16T15:52:31;5.00;;;4.60;;
8260;SDS011;64115;50.170;8.242;2022-10-16T15:54:58;4.60;;;4.30;;